createdAt,value
2023-04-27T00:00:17.437Z,452.1667
2023-04-27T00:01:21.686Z,487.0833
2023-04-27T00:02:26.083Z,510.9167
2023-04-27T00:09:31.713Z,581.2500
2023-04-27T00:10:14.633Z,458.6250
2023-04-27T00:11:18.854Z,435.4167
2023-04-27T00:12:23.060Z,442.4167
2023-04-27T00:13:27.305Z,443.0000
2023-04-27T00:14:31.505Z,440.0000
2023-04-27T00:15:35.748Z,453.0000
2023-04-27T00:16:40.027Z,445.5000
2023-04-27T00:17:44.492Z,449.6667
2023-04-27T00:18:48.667Z,478.5833
2023-04-27T00:19:52.877Z,508.0000
2023-04-27T00:20:57.107Z,580.5000
2023-04-27T00:22:01.337Z,543.3333
2023-04-27T00:23:05.572Z,505.0833
2023-04-27T00:24:09.794Z,468.5000
2023-04-27T00:25:13.994Z,461.0000
2023-04-27T00:26:18.211Z,456.0000
2023-04-27T00:27:22.438Z,435.4167
2023-04-27T00:28:26.635Z,441.9167
2023-04-27T00:29:30.868Z,454.1667
2023-04-27T00:30:35.250Z,454.0833
2023-04-27T00:31:39.641Z,449.6667
2023-04-27T00:32:43.908Z,451.0833
2023-04-27T00:33:48.122Z,462.5000
2023-04-27T00:34:52.323Z,471.3333
2023-04-27T00:35:56.566Z,524.0833
2023-04-27T00:37:00.763Z,539.9167
2023-04-27T00:38:05.005Z,491.2500
2023-04-27T00:39:09.241Z,518.0833
2023-04-27T00:40:13.452Z,508.5000
2023-04-27T00:41:17.693Z,464.5833
2023-04-27T00:42:21.921Z,444.7500
2023-04-27T00:43:26.173Z,444.6667
2023-04-27T00:44:30.377Z,448.3333
2023-04-27T00:45:34.641Z,452.9167
2023-04-27T00:46:38.826Z,446.8333
2023-04-27T00:47:43.091Z,438.6667
2023-04-27T00:48:47.290Z,450.7500
2023-04-27T00:49:51.526Z,443.2500
2023-04-27T00:50:55.730Z,429.1667
2023-04-27T00:51:59.986Z,463.6667
2023-04-27T00:53:04.166Z,534.5000
2023-04-27T00:54:08.413Z,551.9167
2023-04-27T00:55:12.630Z,563.2500
2023-04-27T00:56:16.889Z,499.4167
2023-04-27T00:57:21.068Z,463.3333
2023-04-27T00:58:25.322Z,454.4167
2023-04-27T00:59:29.508Z,446.2500
2023-04-27T01:00:33.758Z,447.2500
2023-04-27T01:01:37.961Z,454.6667
2023-04-27T01:02:42.274Z,460.0000
2023-04-27T01:03:46.685Z,448.5833
2023-04-27T01:04:50.965Z,436.9167
2023-04-27T01:05:55.201Z,444.1667
2023-04-27T01:06:59.413Z,450.9167
2023-04-27T01:08:03.916Z,461.1667
2023-04-27T01:09:08.132Z,532.9167
2023-04-27T01:10:12.381Z,553.0000
2023-04-27T01:11:16.586Z,413.0000
2023-04-27T01:12:20.805Z,615.8333
2023-04-27T01:13:25.059Z,421.1667
2023-04-27T01:14:29.269Z,475.9167
2023-04-27T01:15:33.515Z,463.7500
2023-04-27T01:16:37.758Z,461.4167
2023-04-27T01:17:42.017Z,445.8333
2023-04-27T01:18:46.245Z,431.8333
2023-04-27T01:19:50.720Z,437.5833
2023-04-27T01:20:54.924Z,434.0000
2023-04-27T01:21:59.149Z,439.5000
2023-04-27T01:23:03.357Z,448.9167
2023-04-27T01:24:07.599Z,439.0833
2023-04-27T01:25:11.811Z,519.5000
2023-04-27T01:26:16.035Z,505.9167
2023-04-27T01:27:20.262Z,463.9167
2023-04-27T01:28:24.495Z,646.3333
2023-04-27T01:29:28.724Z,426.5833
2023-04-27T01:30:32.943Z,463.2500
2023-04-27T01:31:37.172Z,458.5833
2023-04-27T01:32:41.457Z,454.1667
2023-04-27T01:33:45.657Z,448.0833
2023-04-27T01:34:49.886Z,442.9167
2023-04-27T01:35:54.106Z,431.0833
2023-04-27T01:36:58.363Z,440.4167
2023-04-27T01:38:02.881Z,441.9167
2023-04-27T01:39:07.070Z,449.4167
2023-04-27T01:40:11.410Z,446.6667
2023-04-27T01:41:15.621Z,513.3333
2023-04-27T01:42:19.863Z,487.4167
2023-04-27T01:43:24.063Z,487.3333
2023-04-27T01:44:28.302Z,647.7500
2023-04-27T01:45:32.504Z,473.0000
2023-04-27T01:46:36.802Z,484.2500
2023-04-27T01:47:41.113Z,445.5000
2023-04-27T01:48:45.325Z,450.0000
2023-04-27T01:49:49.541Z,438.5833
2023-04-27T01:50:53.746Z,445.6667
2023-04-27T01:51:57.981Z,450.0833
2023-04-27T01:53:02.193Z,451.9167
2023-04-27T01:54:06.416Z,438.8333
2023-04-27T01:55:10.766Z,438.1667
2023-04-27T01:56:15.012Z,436.8333
2023-04-27T01:57:15.407Z,452.0000
2023-04-27T01:58:19.635Z,486.6667
2023-04-27T01:59:23.841Z,564.0833
2023-04-27T02:00:28.080Z,563.1667
2023-04-27T02:01:32.527Z,507.4167
2023-04-27T02:02:36.889Z,472.3333
2023-04-27T02:03:41.259Z,493.5000
2023-04-27T02:04:45.739Z,467.5833
2023-04-27T02:05:46.902Z,468.7000
2023-04-27T02:06:51.147Z,466.5000
2023-04-27T02:07:55.359Z,457.3333
2023-04-27T02:08:59.610Z,451.0000
2023-04-27T02:10:03.834Z,449.6667
2023-04-27T02:11:08.082Z,446.5833
2023-04-27T02:12:12.313Z,442.5000
2023-04-27T02:13:16.506Z,444.2500
2023-04-27T02:14:20.718Z,519.6667
2023-04-27T02:15:25.214Z,501.4167
2023-04-27T02:16:29.503Z,477.9167
2023-04-27T02:17:33.698Z,582.6667
2023-04-27T02:18:37.904Z,542.6667
2023-04-27T02:19:42.139Z,437.4167
2023-04-27T02:20:46.371Z,448.4167
2023-04-27T02:21:50.592Z,437.6667
2023-04-27T02:22:54.818Z,434.8333
2023-04-27T02:23:59.048Z,445.5833
2023-04-27T02:25:03.247Z,450.5833
2023-04-27T02:26:07.477Z,455.8333
2023-04-27T02:27:11.681Z,457.3333
2023-04-27T02:28:16.324Z,447.8333
2023-04-27T02:29:20.879Z,456.6667
2023-04-27T02:30:25.561Z,445.9167
2023-04-27T02:31:30.232Z,510.0833
2023-04-27T02:32:34.662Z,587.5000
2023-04-27T02:33:38.867Z,561.0000
2023-04-27T02:34:43.097Z,512.8333
2023-04-27T02:35:47.293Z,490.7500
2023-04-27T02:36:51.702Z,471.5000
2023-04-27T02:37:55.914Z,448.0000
2023-04-27T02:39:00.139Z,454.6667
2023-04-27T02:40:04.687Z,455.5000
2023-04-27T02:41:08.857Z,445.6667
2023-04-27T02:42:13.062Z,435.0000
2023-04-27T02:43:17.286Z,443.0000
2023-04-27T02:44:21.497Z,452.3333
2023-04-27T02:45:25.722Z,454.1667
2023-04-27T02:46:29.993Z,471.1667
2023-04-27T02:47:34.233Z,529.9167
2023-04-27T02:48:38.464Z,500.8333
2023-04-27T02:49:42.682Z,472.0833
2023-04-27T02:50:46.888Z,577.1667
2023-04-27T02:51:51.111Z,519.8333
2023-04-27T02:52:55.354Z,461.0000
2023-04-27T02:53:59.585Z,467.8333
2023-04-27T02:55:03.824Z,451.9167
2023-04-27T02:56:08.023Z,439.0833
2023-04-27T02:57:12.221Z,438.4167
2023-04-27T02:58:16.464Z,442.3333
2023-04-27T02:59:20.690Z,446.2500
2023-04-27T03:00:25.097Z,449.1667
2023-04-27T03:01:29.326Z,450.3333
2023-04-27T03:02:33.648Z,455.8333
2023-04-27T03:03:38.029Z,443.9167
2023-04-27T03:04:42.388Z,494.5000
2023-04-27T03:05:46.642Z,529.5000
2023-04-27T03:06:50.854Z,538.8333
2023-04-27T03:07:55.066Z,552.4167
2023-04-27T03:08:59.270Z,456.5000
2023-04-27T03:10:03.537Z,461.1667
2023-04-27T03:11:07.744Z,453.0833
2023-04-27T03:12:11.985Z,467.0833
2023-04-27T03:13:16.192Z,460.0000
2023-04-27T03:14:20.420Z,460.2500
2023-04-27T03:15:24.644Z,455.2500
2023-04-27T03:16:28.936Z,444.5000
2023-04-27T03:17:33.149Z,451.7500
2023-04-27T03:18:37.369Z,451.5000
2023-04-27T03:19:41.575Z,469.7500
2023-04-27T03:20:45.817Z,467.8333
2023-04-27T03:21:50.040Z,605.9167
2023-04-27T03:22:54.275Z,378.3333
2023-04-27T03:23:58.813Z,636.1667
2023-04-27T03:25:03.054Z,493.9167
2023-04-27T03:26:07.282Z,474.1667
2023-04-27T03:27:11.476Z,442.0833
2023-04-27T03:28:15.712Z,438.1667
2023-04-27T03:29:19.924Z,435.4167
2023-04-27T03:30:24.136Z,441.2500
2023-04-27T03:31:28.416Z,450.0833
2023-04-27T03:32:32.600Z,448.2500
2023-04-27T03:33:36.829Z,449.4167
2023-04-27T03:34:41.073Z,424.6667
2023-04-27T03:35:45.276Z,433.0833
2023-04-27T03:36:49.483Z,489.3333
2023-04-27T03:37:53.716Z,451.0833
2023-04-27T03:38:57.923Z,616.5833
2023-04-27T03:40:02.146Z,494.6667
2023-04-27T03:41:06.367Z,506.8333
2023-04-27T03:42:10.603Z,520.9167
2023-04-27T03:43:14.799Z,429.6667
2023-04-27T03:44:19.035Z,446.3333
2023-04-27T03:45:23.222Z,460.9167
2023-04-27T03:46:27.639Z,458.1667
2023-04-27T03:47:31.882Z,451.0833
2023-04-27T03:48:36.098Z,448.8333
2023-04-27T03:49:40.303Z,455.0000
2023-04-27T03:50:44.547Z,458.6667
2023-04-27T03:51:48.757Z,458.2500
2023-04-27T03:52:52.999Z,449.1667
2023-04-27T03:53:57.213Z,556.5833
2023-04-27T03:55:01.451Z,540.1667
2023-04-27T03:56:05.655Z,499.0833
2023-04-27T03:57:09.893Z,631.1667
2023-04-27T03:58:14.097Z,476.9167
2023-04-27T03:59:18.330Z,483.3333
2023-04-27T04:00:22.538Z,445.0833
2023-04-27T04:01:26.771Z,447.2500
2023-04-27T04:02:31.151Z,459.8333
2023-04-27T04:03:35.517Z,458.5000
2023-04-27T04:04:40.306Z,458.0000
2023-04-27T04:05:44.638Z,461.0833
2023-04-27T04:06:48.870Z,458.0000
2023-04-27T04:07:53.078Z,455.2500
2023-04-27T04:08:57.305Z,453.5000
2023-04-27T04:10:01.523Z,498.9167
2023-04-27T04:11:05.734Z,542.1667
2023-04-27T04:12:10.320Z,430.6667
2023-04-27T04:13:14.524Z,652.5000
2023-04-27T04:14:18.889Z,480.0833
2023-04-27T04:15:23.078Z,468.6667
2023-04-27T04:16:27.406Z,460.0000
2023-04-27T04:17:31.661Z,459.7500
2023-04-27T04:18:35.873Z,465.9167
2023-04-27T04:19:40.091Z,454.0833
2023-04-27T04:20:44.330Z,452.0000
2023-04-27T04:21:48.537Z,454.0000
2023-04-27T04:22:52.765Z,456.2500
2023-04-27T04:23:56.973Z,457.7500
2023-04-27T04:25:01.209Z,470.4167
2023-04-27T04:26:05.409Z,457.7500
2023-04-27T04:27:09.645Z,538.3333
2023-04-27T04:28:13.864Z,558.9167
2023-04-27T04:29:18.105Z,453.3333
2023-04-27T04:30:22.325Z,567.0000
2023-04-27T04:31:26.595Z,493.6667
2023-04-27T04:32:30.916Z,466.1667
2023-04-27T04:33:35.125Z,457.7500
2023-04-27T04:34:39.338Z,451.8333
2023-04-27T04:35:43.555Z,449.2500
2023-04-27T04:36:47.778Z,453.7500
2023-04-27T04:37:51.978Z,445.0833
2023-04-27T04:38:56.211Z,458.0000
2023-04-27T04:40:00.417Z,459.4167
2023-04-27T04:41:04.666Z,451.6667
2023-04-27T04:42:08.878Z,460.9167
2023-04-27T04:43:13.103Z,512.7500
2023-04-27T04:44:17.329Z,474.9167
2023-04-27T04:45:21.555Z,569.0000
2023-04-27T04:46:25.797Z,575.0833
2023-04-27T04:47:30.006Z,448.6667
2023-04-27T04:48:34.241Z,480.8333
2023-04-27T04:49:38.458Z,448.9167
2023-04-27T04:50:42.685Z,451.4167
2023-04-27T04:51:46.887Z,450.4167
2023-04-27T04:52:51.118Z,448.5833
2023-04-27T04:53:55.342Z,453.7500
2023-04-27T04:54:59.582Z,467.5833
2023-04-27T04:56:03.787Z,462.5833
2023-04-27T04:57:08.015Z,461.5833
2023-04-27T04:58:12.224Z,461.6667
2023-04-27T04:59:16.454Z,504.2500
2023-04-27T05:00:20.658Z,539.7500
2023-04-27T05:01:24.920Z,549.5000
2023-04-27T05:02:29.298Z,523.7500
2023-04-27T05:03:33.915Z,497.5833
2023-04-27T05:04:38.310Z,520.0000
2023-04-27T05:05:42.596Z,453.3333
2023-04-27T05:06:46.812Z,458.0833
2023-04-27T05:07:51.053Z,460.5000
2023-04-27T05:08:55.274Z,450.0833
2023-04-27T05:09:59.507Z,458.4167
2023-04-27T05:11:03.712Z,460.1667
2023-04-27T05:12:07.914Z,460.5000
2023-04-27T05:13:12.173Z,468.5000
2023-04-27T05:14:16.371Z,460.0833
2023-04-27T05:15:20.618Z,490.1667
2023-04-27T05:16:24.894Z,493.0833
2023-04-27T05:17:29.083Z,579.9167
2023-04-27T05:18:33.284Z,613.1667
2023-04-27T05:19:37.505Z,456.8333
2023-04-27T05:20:41.725Z,514.5833
2023-04-27T05:21:45.944Z,492.6667
2023-04-27T05:22:50.203Z,457.1667
2023-04-27T05:23:54.407Z,460.1667
2023-04-27T05:24:58.649Z,458.5833
2023-04-27T05:26:02.844Z,445.6667
2023-04-27T05:27:07.108Z,478.7500
2023-04-27T05:28:11.301Z,470.8333
2023-04-27T05:29:15.909Z,459.0833
2023-04-27T05:30:20.436Z,456.7500
2023-04-27T05:31:24.843Z,458.6667
2023-04-27T05:32:29.052Z,488.1667
2023-04-27T05:33:33.256Z,514.0000
2023-04-27T05:34:37.464Z,585.2500
2023-04-27T05:35:41.703Z,539.6667
2023-04-27T05:36:45.941Z,534.8333
2023-04-27T05:37:50.152Z,511.7500
2023-04-27T05:38:54.368Z,469.0833
2023-04-27T05:39:58.592Z,451.3333
2023-04-27T05:41:02.801Z,446.3333
2023-04-27T05:42:07.025Z,463.9167
2023-04-27T05:43:11.256Z,480.1667
2023-04-27T05:44:15.483Z,605.9167
2023-04-27T05:45:19.720Z,725.7500
2023-04-27T05:46:23.984Z,734.7500
2023-04-27T05:47:28.190Z,672.6667
2023-04-27T05:48:32.408Z,655.1667
2023-04-27T05:49:36.660Z,641.6667
2023-04-27T05:50:40.887Z,639.3333
2023-04-27T05:51:45.360Z,702.9167
2023-04-27T05:52:49.586Z,707.1667
2023-04-27T05:53:53.830Z,719.4167
2023-04-27T05:54:58.058Z,650.0000
2023-04-27T05:56:02.291Z,659.1667
2023-04-27T05:57:06.512Z,651.7500
2023-04-27T05:58:10.714Z,649.8333
2023-04-27T05:59:15.326Z,645.8333
2023-04-27T06:00:19.738Z,649.9167
2023-04-27T06:01:23.992Z,646.6667
2023-04-27T06:02:28.296Z,640.5000
2023-04-27T06:03:32.730Z,629.2500
2023-04-27T06:04:37.441Z,633.3333
2023-04-27T06:05:41.806Z,696.9167
2023-04-27T06:06:46.117Z,713.0000
2023-04-27T06:07:50.380Z,661.4167
2023-04-27T06:08:54.609Z,738.3333
2023-04-27T06:09:58.859Z,718.8333
2023-04-27T06:11:03.082Z,665.1667
2023-04-27T06:12:07.319Z,652.0000
2023-04-27T06:13:11.543Z,654.3333
2023-04-27T06:14:15.790Z,644.7500
2023-04-27T06:15:20.025Z,641.3333
2023-04-27T06:16:24.362Z,636.0833
2023-04-27T06:17:28.694Z,645.3333
2023-04-27T06:18:32.903Z,652.9167
2023-04-27T06:19:37.182Z,642.8333
2023-04-27T06:20:41.386Z,646.1667
2023-04-27T06:21:45.602Z,649.1667
2023-04-27T06:22:49.811Z,682.0000
2023-04-27T06:23:54.015Z,715.5000
2023-04-27T06:24:58.236Z,731.5000
2023-04-27T06:26:02.526Z,728.3333
2023-04-27T06:27:06.736Z,710.9167
2023-04-27T06:28:10.908Z,663.5833
2023-04-27T06:29:15.329Z,639.0833
2023-04-27T06:30:19.607Z,632.6667
2023-04-27T06:31:23.832Z,628.2500
2023-04-27T06:32:28.171Z,632.5000
2023-04-27T06:33:32.427Z,650.1667
2023-04-27T06:34:36.587Z,657.5833
2023-04-27T06:35:40.800Z,646.2500
2023-04-27T06:36:45.113Z,638.0000
2023-04-27T06:37:49.351Z,644.8333
2023-04-27T06:38:53.601Z,668.3333
2023-04-27T06:39:57.829Z,693.5000
2023-04-27T06:41:02.052Z,735.8333
2023-04-27T06:42:06.426Z,761.8333
2023-04-27T06:43:10.660Z,695.8333
2023-04-27T06:44:14.906Z,677.2500
2023-04-27T06:45:19.145Z,653.6667
2023-04-27T06:46:23.421Z,644.2500
2023-04-27T06:47:27.610Z,639.2500
2023-04-27T06:48:31.848Z,628.4167
2023-04-27T06:49:36.095Z,622.4167
2023-04-27T06:50:40.349Z,621.2500
2023-04-27T06:51:44.573Z,626.6667
2023-04-27T06:52:48.825Z,641.7500
2023-04-27T06:53:53.149Z,638.2500
2023-04-27T06:54:57.419Z,643.6667
2023-04-27T06:56:01.652Z,646.5833
2023-04-27T06:57:06.024Z,669.8333
2023-04-27T06:58:10.281Z,728.5000
2023-04-27T06:59:14.722Z,716.2500
2023-04-27T07:00:19.106Z,737.5833
2023-04-27T07:01:23.422Z,678.0000
2023-04-27T07:02:27.738Z,643.3333
2023-04-27T07:03:32.035Z,625.7500
2023-04-27T07:04:36.336Z,623.6667
2023-04-27T07:05:40.572Z,626.8333
2023-04-27T07:06:44.843Z,632.2500
2023-04-27T07:07:49.082Z,630.8333
2023-04-27T07:08:53.588Z,627.5000
2023-04-27T07:09:57.820Z,632.4167
2023-04-27T07:11:02.080Z,632.9167
2023-04-27T07:12:06.304Z,643.0833
2023-04-27T07:13:11.278Z,652.5000
2023-04-27T07:14:11.467Z,703.5455
2023-04-27T07:15:15.735Z,736.9167
2023-04-27T07:16:20.007Z,697.5833
2023-04-27T07:17:24.289Z,738.1667
2023-04-27T07:18:28.506Z,677.7500
2023-04-27T07:19:32.744Z,639.8333
2023-04-27T07:20:36.980Z,633.5000
2023-04-27T07:21:41.297Z,620.4167
2023-04-27T07:22:45.520Z,615.7500
2023-04-27T07:23:49.783Z,616.2500
2023-04-27T07:24:54.054Z,619.5000
2023-04-27T07:25:58.323Z,624.9167
2023-04-27T07:27:02.578Z,627.1667
2023-04-27T07:28:06.814Z,626.2500
2023-04-27T07:29:25.674Z,643.8333
2023-04-27T07:30:15.889Z,619.0000
2023-04-27T07:31:20.164Z,760.3333
2023-04-27T07:32:24.682Z,726.5833
2023-04-27T07:33:28.946Z,679.4167
2023-04-27T07:34:45.008Z,685.4167
2023-04-27T07:35:38.015Z,647.5455
2023-04-27T07:36:42.281Z,627.4167
2023-04-27T07:37:46.534Z,621.8333
2023-04-27T07:38:50.794Z,624.9167
2023-04-27T07:39:55.059Z,627.5000
2023-04-27T07:40:59.301Z,632.7500
2023-04-27T07:42:03.555Z,622.0833
2023-04-27T07:43:07.816Z,618.8333
2023-04-27T07:44:12.056Z,615.4167
2023-04-27T07:45:16.272Z,614.5000
2023-04-27T07:46:20.611Z,687.0833
2023-04-27T07:47:24.921Z,703.3333
2023-04-27T07:48:29.178Z,708.5833
2023-04-27T07:49:33.390Z,683.0000
2023-04-27T07:50:37.649Z,675.0833
2023-04-27T07:51:41.887Z,644.7500
2023-04-27T07:52:46.105Z,653.5833
2023-04-27T07:53:50.338Z,639.5833
2023-04-27T07:54:54.630Z,625.6667
2023-04-27T07:55:58.883Z,620.4167
2023-04-27T07:57:03.145Z,619.4167
2023-04-27T07:58:07.442Z,619.0833
2023-04-27T07:59:12.034Z,628.3333
2023-04-27T08:00:17.032Z,633.1667
2023-04-27T08:01:21.644Z,629.5000
2023-04-27T08:02:26.018Z,632.4167
2023-04-27T08:03:30.654Z,649.7500
2023-04-27T08:04:35.335Z,683.2500
2023-04-27T08:05:40.285Z,725.8333
2023-04-27T08:06:45.054Z,719.9167
2023-04-27T08:08:54.383Z,636.9167
2023-04-27T08:09:58.612Z,610.6667
2023-04-27T08:11:02.841Z,614.5833
2023-04-27T08:12:07.318Z,614.3333
2023-04-27T08:13:11.560Z,625.9167
2023-04-27T08:14:15.817Z,632.4167
2023-04-27T08:15:20.056Z,623.6667
2023-04-27T08:16:24.292Z,622.3333
2023-04-27T08:17:28.593Z,624.7500
2023-04-27T08:18:32.847Z,624.5833
2023-04-27T08:19:37.119Z,637.9167
2023-04-27T08:20:41.373Z,671.1667
2023-04-27T08:21:45.687Z,694.2500
2023-04-27T08:22:49.935Z,700.1667
2023-04-27T08:23:54.193Z,727.0833
2023-04-27T08:24:58.459Z,698.8333
2023-04-27T08:26:02.721Z,631.7500
2023-04-27T08:27:06.987Z,622.3333
2023-04-27T08:28:11.346Z,615.0000
2023-04-27T08:29:27.212Z,610.0833
2023-04-27T08:30:20.436Z,611.6364
2023-04-27T08:31:24.730Z,621.0000
2023-04-27T08:32:29.005Z,620.0833
2023-04-27T08:33:33.255Z,619.5833
2023-04-27T08:34:37.501Z,607.8333
2023-04-27T08:35:41.783Z,605.0833
2023-04-27T08:36:46.016Z,636.3333
2023-04-27T08:37:50.250Z,681.0833
2023-04-27T08:38:54.512Z,708.2500
2023-04-27T08:39:58.738Z,723.4167
2023-04-27T08:41:14.541Z,682.1667
2023-04-27T08:42:07.774Z,656.0000
2023-04-27T08:43:12.021Z,621.5000
2023-04-27T08:44:16.261Z,621.9167
2023-04-27T08:45:20.500Z,621.9167
2023-04-27T08:46:24.762Z,624.3333
2023-04-27T08:47:41.912Z,618.3333
2023-04-27T08:48:33.752Z,608.1818
2023-04-27T08:49:38.597Z,609.6667
2023-04-27T08:50:42.809Z,621.0000
2023-04-27T08:51:47.064Z,624.8333
2023-04-27T08:52:51.339Z,632.9167
2023-04-27T08:53:55.614Z,656.5833
2023-04-27T08:54:59.885Z,663.3333
2023-04-27T08:56:04.119Z,706.3333
2023-04-27T08:57:08.400Z,690.0833
2023-04-27T08:58:12.659Z,704.2500
2023-04-27T08:59:17.409Z,643.0833
2023-04-27T09:00:21.957Z,618.3333
2023-04-27T09:01:26.286Z,612.1667
2023-04-27T09:02:30.622Z,607.2500
2023-04-27T09:03:35.025Z,603.0000
2023-04-27T09:04:39.820Z,603.5000
2023-04-27T09:05:52.726Z,606.6667
2023-04-27T09:06:45.196Z,618.5000
2023-04-27T09:07:49.482Z,605.8333
2023-04-27T09:08:53.735Z,613.5000
2023-04-27T09:09:58.232Z,645.0000
2023-04-27T09:11:02.486Z,682.9167
2023-04-27T09:12:06.731Z,699.9167
2023-04-27T09:13:10.957Z,707.2500
2023-04-27T09:14:15.188Z,656.3333
2023-04-27T09:15:19.435Z,644.9167
2023-04-27T09:16:23.719Z,623.0833
2023-04-27T09:17:28.049Z,623.5833
2023-04-27T09:18:32.337Z,620.3333
2023-04-27T09:19:36.607Z,603.0833
2023-04-27T09:20:40.915Z,599.8333
2023-04-27T09:21:46.674Z,595.4167
2023-04-27T09:22:46.688Z,606.2727
2023-04-27T09:23:50.932Z,610.5833
2023-04-27T09:24:55.171Z,616.2500
2023-04-27T09:25:59.432Z,610.9167
2023-04-27T09:27:03.665Z,621.5833
2023-04-27T09:28:07.918Z,685.2500
2023-04-27T09:29:12.408Z,672.6667
2023-04-27T09:30:16.784Z,680.7500
2023-04-27T09:31:21.017Z,695.1667
2023-04-27T09:32:25.268Z,635.0000
2023-04-27T09:33:29.492Z,610.8333
2023-04-27T09:34:33.724Z,594.8333
2023-04-27T09:35:38.050Z,596.8333
2023-04-27T09:36:42.305Z,603.6667
2023-04-27T09:37:46.545Z,604.0000
2023-04-27T09:38:50.786Z,605.0833
2023-04-27T09:39:55.017Z,611.9167
2023-04-27T09:40:59.251Z,602.5833
2023-04-27T09:42:03.521Z,603.0833
2023-04-27T09:43:07.756Z,625.9167
2023-04-27T09:44:12.012Z,666.4167
2023-04-27T09:45:16.264Z,641.0833
2023-04-27T09:46:20.516Z,707.5833
2023-04-27T09:47:24.823Z,672.8333
2023-04-27T09:48:29.053Z,658.0833
2023-04-27T09:49:33.302Z,631.5000
2023-04-27T09:50:38.229Z,621.5000
2023-04-27T09:51:42.562Z,610.0833
2023-04-27T09:52:46.920Z,615.0000
2023-04-27T09:53:51.162Z,610.1667
2023-04-27T09:54:55.445Z,614.1667
2023-04-27T09:55:59.695Z,609.2500
2023-04-27T09:57:03.935Z,607.5833
2023-04-27T09:58:08.178Z,610.7500
2023-04-27T09:59:12.646Z,606.1667
2023-04-27T10:00:16.990Z,603.6667
2023-04-27T10:01:21.274Z,651.3333
2023-04-27T10:02:26.010Z,662.0833
2023-04-27T10:03:30.402Z,710.3333
2023-04-27T10:04:34.813Z,700.7500
2023-04-27T10:05:39.247Z,650.8333
2023-04-27T10:06:43.499Z,611.0000
2023-04-27T10:07:47.755Z,591.3333
2023-04-27T10:08:52.018Z,585.3333
2023-04-27T10:09:56.274Z,585.5000
2023-04-27T10:11:00.519Z,593.8333
2023-04-27T10:12:04.946Z,604.1667
2023-04-27T10:13:09.219Z,607.4167
2023-04-27T10:14:13.482Z,600.5000
2023-04-27T10:15:17.829Z,595.4167
2023-04-27T10:16:22.156Z,602.5000
2023-04-27T10:17:22.723Z,642.3636
2023-04-27T10:18:27.038Z,671.8333
2023-04-27T10:19:31.576Z,706.0833
2023-04-27T10:20:35.782Z,718.5000
2023-04-27T10:21:40.061Z,652.0000
2023-04-27T10:22:44.294Z,620.9167
2023-04-27T10:23:48.587Z,626.4167
2023-04-27T10:24:52.801Z,611.5833
2023-04-27T10:25:57.069Z,608.9167
2023-04-27T10:27:01.294Z,592.8333
2023-04-27T10:28:05.537Z,588.0000
2023-04-27T10:29:09.772Z,586.7500
2023-04-27T10:30:14.026Z,588.5833
2023-04-27T10:31:18.310Z,592.7500
2023-04-27T10:32:22.627Z,597.4167
2023-04-27T10:33:26.863Z,598.9167
2023-04-27T10:34:31.132Z,715.2500
2023-04-27T10:35:35.391Z,591.8333
2023-04-27T10:36:39.624Z,652.1667
2023-04-27T10:37:43.882Z,709.5000
2023-04-27T10:38:48.119Z,630.6667
2023-04-27T10:39:54.736Z,608.2500
2023-04-27T10:40:53.841Z,589.0000
2023-04-27T10:41:58.098Z,596.5000
2023-04-27T10:43:02.347Z,595.6667
2023-04-27T10:44:06.637Z,600.5000
2023-04-27T10:45:10.866Z,601.3333
2023-04-27T10:46:15.187Z,591.5000
2023-04-27T10:47:19.397Z,588.7500
2023-04-27T10:48:23.635Z,590.1667
2023-04-27T10:49:27.900Z,623.6667
2023-04-27T10:50:32.153Z,592.9167
2023-04-27T10:51:36.394Z,755.9167
2023-04-27T10:52:40.645Z,610.0833
2023-04-27T10:53:44.918Z,646.9167
2023-04-27T10:54:49.165Z,668.3333
2023-04-27T10:55:53.434Z,619.5000
2023-04-27T10:56:57.699Z,602.5833
2023-04-27T10:58:01.947Z,597.4167
2023-04-27T10:59:06.203Z,588.2500
2023-04-27T11:00:10.438Z,577.8333
2023-04-27T11:01:14.680Z,583.9167
2023-04-27T11:02:18.963Z,584.7500
2023-04-27T11:03:23.446Z,591.6667
2023-04-27T11:04:27.776Z,591.2500
2023-04-27T11:05:32.061Z,597.5833
2023-04-27T11:06:36.334Z,663.5833
2023-04-27T11:07:40.556Z,597.0833
2023-04-27T11:08:44.995Z,691.5000
2023-04-27T11:09:49.213Z,710.4167
2023-04-27T11:10:53.492Z,630.5000
2023-04-27T11:11:57.767Z,635.0833
2023-04-27T11:13:02.096Z,587.3333
2023-04-27T11:14:06.330Z,593.3333
2023-04-27T11:15:10.592Z,591.6667
2023-04-27T11:16:14.910Z,594.8333
2023-04-27T11:17:19.149Z,592.4167
2023-04-27T11:18:23.370Z,594.7500
2023-04-27T11:19:27.633Z,584.8333
2023-04-27T11:20:31.894Z,579.3333
2023-04-27T11:21:36.160Z,586.0000
2023-04-27T11:22:40.427Z,616.5000
2023-04-27T11:23:44.667Z,670.6667
2023-04-27T11:24:48.890Z,706.1667
2023-04-27T11:25:53.139Z,648.2500
2023-04-27T11:26:57.420Z,623.5000
2023-04-27T11:28:01.690Z,673.6667
2023-04-27T11:29:05.917Z,595.9167
2023-04-27T11:30:10.169Z,594.9167
2023-04-27T11:31:14.525Z,592.0000
2023-04-27T11:32:18.738Z,592.6667
2023-04-27T11:33:22.977Z,585.2500
2023-04-27T11:34:27.288Z,585.0000
2023-04-27T11:35:31.528Z,590.6667
2023-04-27T11:36:35.821Z,593.0833
2023-04-27T11:37:40.067Z,595.3333
2023-04-27T11:38:44.363Z,605.0000
2023-04-27T11:39:48.590Z,571.5833
2023-04-27T11:40:52.849Z,737.7500
2023-04-27T11:41:57.448Z,717.7500
2023-04-27T11:43:01.703Z,630.0000
2023-04-27T11:44:05.950Z,700.9167
2023-04-27T11:45:10.176Z,608.2500
2023-04-27T11:46:14.596Z,612.4167
2023-04-27T11:47:19.056Z,602.1667
2023-04-27T11:48:23.364Z,602.4167
2023-04-27T11:49:27.591Z,597.8333
2023-04-27T11:50:31.866Z,604.9167
2023-04-27T11:51:36.121Z,605.8333
2023-04-27T11:52:40.423Z,594.4167
2023-04-27T11:53:44.633Z,588.8333
2023-04-27T11:54:48.878Z,592.5833
2023-04-27T11:55:53.132Z,649.9167
2023-04-27T11:56:57.397Z,657.2500
2023-04-27T11:58:01.639Z,614.4167
2023-04-27T11:59:05.908Z,752.0000
2023-04-27T12:00:10.162Z,653.4167
2023-04-27T12:01:16.655Z,620.0833
2023-04-27T12:02:19.323Z,594.7273
2023-04-27T12:03:23.845Z,600.9167
2023-04-27T12:04:28.500Z,604.1667
2023-04-27T12:05:32.833Z,606.6667
2023-04-27T12:06:37.298Z,596.1667
2023-04-27T12:07:41.595Z,594.7500
2023-04-27T12:08:45.837Z,613.2500
2023-04-27T12:09:50.061Z,610.8333
2023-04-27T12:10:54.328Z,608.0833
2023-04-27T12:11:58.576Z,620.5833
2023-04-27T12:13:02.821Z,596.2500
2023-04-27T12:14:07.056Z,763.2500
2023-04-27T12:15:11.297Z,652.1667
2023-04-27T12:16:15.563Z,645.1667
2023-04-27T12:17:19.798Z,679.6667
2023-04-27T12:18:24.026Z,605.3333
2023-04-27T12:19:28.272Z,605.5833
2023-04-27T12:20:32.509Z,603.6667
2023-04-27T12:21:36.765Z,606.8333
2023-04-27T12:22:40.996Z,618.9167
2023-04-27T12:23:45.287Z,612.0000
2023-04-27T12:24:49.561Z,608.7500
2023-04-27T12:25:53.819Z,598.6667
2023-04-27T12:26:58.081Z,594.6667
2023-04-27T12:28:02.300Z,618.1667
2023-04-27T12:29:06.561Z,683.9167
2023-04-27T12:30:10.820Z,590.7500
2023-04-27T12:31:15.165Z,758.6667
2023-04-27T12:32:19.435Z,662.7500
2023-04-27T12:33:23.719Z,600.9167
2023-04-27T12:34:27.926Z,639.1667
2023-04-27T12:35:32.322Z,609.6667
2023-04-27T12:36:36.625Z,614.3333
2023-04-27T12:37:40.871Z,613.5833
2023-04-27T12:38:45.156Z,608.3333
2023-04-27T12:39:49.425Z,599.8333
2023-04-27T12:40:53.634Z,593.6667